sensor_id;sensor_type;location;lat;lon;timestamp;P1;durP1;ratioP1;P2;durP2;ratioP2
16393;SDS011;8306;51.128;4.476;2023-04-01T00:00:34;3.33;;;1.47;;
16393;SDS011;8306;51.128;4.476;2023-04-01T00:03:01;4.03;;;1.50;;
16393;SDS011;8306;51.128;4.476;2023-04-01T00:05:27;3.33;;;1.60;;
16393;SDS011;8306;51.128;4.476;2023-04-01T00:07:54;3.07;;;1.50;;
16393;SDS011;8306;51.128;4.476;2023-04-01T00:10:20;3.57;;;1.30;;
16393;SDS011;8306;51.128;4.476;2023-04-01T00:12:47;4.47;;;1.93;;
16393;SDS011;8306;51.128;4.476;2023-04-01T00:15:13;3.33;;;1.40;;
16393;SDS011;8306;51.128;4.476;2023-04-01T00:17:40;5.23;;;2.00;;
16393;SDS011;8306;51.128;4.476;2023-04-01T00:20:06;3.23;;;1.83;;
16393;SDS011;8306;51.128;4.476;2023-04-01T00:22:33;4.07;;;1.80;;
16393;SDS011;8306;51.128;4.476;2023-04-01T00:24:59;3.90;;;2.03;;
16393;SDS011;8306;51.128;4.476;2023-04-01T00:27:26;4.47;;;1.97;;
16393;SDS011;8306;51.128;4.476;2023-04-01T00:29:52;4.20;;;2.00;;
16393;SDS011;8306;51.128;4.476;2023-04-01T00:32:19;7.60;;;2.70;;
16393;SDS011;8306;51.128;4.476;2023-04-01T00:34:45;4.70;;;2.60;;
16393;SDS011;8306;51.128;4.476;2023-04-01T00:37:12;3.60;;;2.30;;
16393;SDS011;8306;51.128;4.476;2023-04-01T00:39:38;3.17;;;2.30;;
16393;SDS011;8306;51.128;4.476;2023-04-01T00:42:05;4.33;;;2.60;;
16393;SDS011;8306;51.128;4.476;2023-04-01T00:44:32;3.47;;;2.83;;
16393;SDS011;8306;51.128;4.476;2023-04-01T00:46:58;5.03;;;3.37;;
16393;SDS011;8306;51.128;4.476;2023-04-01T00:49:28;4.77;;;3.53;;
16393;SDS011;8306;51.128;4.476;2023-04-01T00:51:54;4.90;;;3.90;;
16393;SDS011;8306;51.128;4.476;2023-04-01T00:54:20;4.07;;;3.67;;
16393;SDS011;8306;51.128;4.476;2023-04-01T00:56:48;4.67;;;4.03;;
16393;SDS011;8306;51.128;4.476;2023-04-01T00:59:17;6.87;;;4.17;;
16393;SDS011;8306;51.128;4.476;2023-04-01T01:01:42;5.10;;;3.43;;
16393;SDS011;8306;51.128;4.476;2023-04-01T01:04:20;5.87;;;4.00;;
16393;SDS011;8306;51.128;4.476;2023-04-01T01:09:41;7.37;;;4.80;;
16393;SDS011;8306;51.128;4.476;2023-04-01T01:12:25;4.57;;;4.17;;
16393;SDS011;8306;51.128;4.476;2023-04-01T01:20:25;4.97;;;3.50;;
16393;SDS011;8306;51.128;4.476;2023-04-01T01:28:51;4.83;;;3.90;;
16393;SDS011;8306;51.128;4.476;2023-04-01T01:31:16;5.33;;;3.53;;
16393;SDS011;8306;51.128;4.476;2023-04-01T01:36:28;4.33;;;3.93;;
16393;SDS011;8306;51.128;4.476;2023-04-01T01:38:54;4.80;;;4.37;;
16393;SDS011;8306;51.128;4.476;2023-04-01T01:41:20;5.50;;;4.97;;
16393;SDS011;8306;51.128;4.476;2023-04-01T01:43:47;5.40;;;4.23;;
16393;SDS011;8306;51.128;4.476;2023-04-01T01:46:16;4.30;;;3.90;;
16393;SDS011;8306;51.128;4.476;2023-04-01T01:48:40;4.00;;;3.20;;
16393;SDS011;8306;51.128;4.476;2023-04-01T01:51:06;3.47;;;3.00;;
16393;SDS011;8306;51.128;4.476;2023-04-01T01:53:33;5.00;;;3.13;;
16393;SDS011;8306;51.128;4.476;2023-04-01T01:55:59;4.57;;;2.70;;
16393;SDS011;8306;51.128;4.476;2023-04-01T01:58:32;3.37;;;2.60;;
16393;SDS011;8306;51.128;4.476;2023-04-01T02:01:03;3.63;;;2.37;;
16393;SDS011;8306;51.128;4.476;2023-04-01T02:03:31;4.80;;;3.00;;
16393;SDS011;8306;51.128;4.476;2023-04-01T02:05:57;4.37;;;3.17;;
16393;SDS011;8306;51.128;4.476;2023-04-01T02:08:28;3.27;;;2.97;;
16393;SDS011;8306;51.128;4.476;2023-04-01T02:10:58;3.37;;;2.50;;
16393;SDS011;8306;51.128;4.476;2023-04-01T02:13:27;4.37;;;3.30;;
16393;SDS011;8306;51.128;4.476;2023-04-01T02:15:51;3.40;;;2.87;;
16393;SDS011;8306;51.128;4.476;2023-04-01T02:18:17;3.80;;;3.10;;
16393;SDS011;8306;51.128;4.476;2023-04-01T02:20:44;2.77;;;2.57;;
16393;SDS011;8306;51.128;4.476;2023-04-01T02:23:10;3.43;;;2.40;;
16393;SDS011;8306;51.128;4.476;2023-04-01T02:25:37;3.00;;;2.43;;
16393;SDS011;8306;51.128;4.476;2023-04-01T02:28:04;3.37;;;2.70;;
16393;SDS011;8306;51.128;4.476;2023-04-01T02:30:30;4.03;;;3.03;;
16393;SDS011;8306;51.128;4.476;2023-04-01T02:32:56;3.40;;;3.10;;
16393;SDS011;8306;51.128;4.476;2023-04-01T02:35:23;4.80;;;3.70;;
16393;SDS011;8306;51.128;4.476;2023-04-01T02:37:49;4.83;;;4.03;;
16393;SDS011;8306;51.128;4.476;2023-04-01T02:40:16;3.87;;;3.30;;
16393;SDS011;8306;51.128;4.476;2023-04-01T02:42:42;3.27;;;2.50;;
16393;SDS011;8306;51.128;4.476;2023-04-01T02:45:09;3.03;;;2.47;;
16393;SDS011;8306;51.128;4.476;2023-04-01T02:47:35;3.47;;;2.70;;
16393;SDS011;8306;51.128;4.476;2023-04-01T02:50:02;3.07;;;2.77;;
16393;SDS011;8306;51.128;4.476;2023-04-01T02:52:28;2.30;;;2.10;;
16393;SDS011;8306;51.128;4.476;2023-04-01T02:54:55;2.77;;;2.10;;
16393;SDS011;8306;51.128;4.476;2023-04-01T02:57:21;2.87;;;2.67;;
16393;SDS011;8306;51.128;4.476;2023-04-01T02:59:48;2.90;;;2.70;;
16393;SDS011;8306;51.128;4.476;2023-04-01T03:02:14;2.60;;;2.40;;
16393;SDS011;8306;51.128;4.476;2023-04-01T03:04:40;2.60;;;2.40;;
16393;SDS011;8306;51.128;4.476;2023-04-01T03:07:07;3.03;;;2.30;;
16393;SDS011;8306;51.128;4.476;2023-04-01T03:09:33;2.70;;;2.30;;
16393;SDS011;8306;51.128;4.476;2023-04-01T03:12:00;2.37;;;2.00;;
16393;SDS011;8306;51.128;4.476;2023-04-01T03:14:26;2.27;;;1.80;;
16393;SDS011;8306;51.128;4.476;2023-04-01T03:16:53;2.97;;;2.10;;
16393;SDS011;8306;51.128;4.476;2023-04-01T03:19:19;2.10;;;2.00;;
16393;SDS011;8306;51.128;4.476;2023-04-01T03:21:46;4.73;;;2.50;;
16393;SDS011;8306;51.128;4.476;2023-04-01T03:24:12;3.37;;;2.90;;
16393;SDS011;8306;51.128;4.476;2023-04-01T03:26:39;3.97;;;3.30;;
16393;SDS011;8306;51.128;4.476;2023-04-01T03:29:05;3.03;;;2.40;;
16393;SDS011;8306;51.128;4.476;2023-04-01T03:31:32;2.53;;;2.40;;
16393;SDS011;8306;51.128;4.476;2023-04-01T03:33:58;3.17;;;2.87;;
16393;SDS011;8306;51.128;4.476;2023-04-01T03:36:25;2.97;;;2.60;;
16393;SDS011;8306;51.128;4.476;2023-04-01T03:38:51;2.23;;;2.00;;
16393;SDS011;8306;51.128;4.476;2023-04-01T03:41:18;1.60;;;1.50;;
16393;SDS011;8306;51.128;4.476;2023-04-01T03:43:44;2.30;;;2.10;;
16393;SDS011;8306;51.128;4.476;2023-04-01T03:46:11;2.13;;;2.00;;
16393;SDS011;8306;51.128;4.476;2023-04-01T03:48:37;1.80;;;1.70;;
16393;SDS011;8306;51.128;4.476;2023-04-01T03:51:07;2.83;;;2.20;;
16393;SDS011;8306;51.128;4.476;2023-04-01T03:53:33;3.30;;;3.00;;
16393;SDS011;8306;51.128;4.476;2023-04-01T03:56:03;2.70;;;2.43;;
16393;SDS011;8306;51.128;4.476;2023-04-01T03:58:26;2.90;;;2.53;;
16393;SDS011;8306;51.128;4.476;2023-04-01T04:00:53;3.43;;;3.13;;
16393;SDS011;8306;51.128;4.476;2023-04-01T04:03:19;4.37;;;3.40;;
16393;SDS011;8306;51.128;4.476;2023-04-01T04:05:46;3.70;;;3.40;;
16393;SDS011;8306;51.128;4.476;2023-04-01T04:08:12;3.63;;;3.13;;
16393;SDS011;8306;51.128;4.476;2023-04-01T04:10:38;4.33;;;3.93;;
16393;SDS011;8306;51.128;4.476;2023-04-01T04:13:05;3.70;;;3.40;;
16393;SDS011;8306;51.128;4.476;2023-04-01T04:15:31;3.80;;;3.50;;
16393;SDS011;8306;51.128;4.476;2023-04-01T04:17:58;4.73;;;4.33;;
16393;SDS011;8306;51.128;4.476;2023-04-01T04:20:24;4.87;;;4.47;;
16393;SDS011;8306;51.128;4.476;2023-04-01T04:22:51;5.07;;;4.57;;
16393;SDS011;8306;51.128;4.476;2023-04-01T04:25:17;4.60;;;4.20;;
16393;SDS011;8306;51.128;4.476;2023-04-01T04:27:44;4.83;;;4.43;;
16393;SDS011;8306;51.128;4.476;2023-04-01T04:30:10;5.37;;;4.90;;
16393;SDS011;8306;51.128;4.476;2023-04-01T04:32:37;6.03;;;4.37;;
16393;SDS011;8306;51.128;4.476;2023-04-01T04:35:03;3.63;;;3.43;;
16393;SDS011;8306;51.128;4.476;2023-04-01T04:37:30;4.40;;;4.00;;
16393;SDS011;8306;51.128;4.476;2023-04-01T04:39:56;5.67;;;4.40;;
16393;SDS011;8306;51.128;4.476;2023-04-01T04:42:23;4.90;;;4.33;;
16393;SDS011;8306;51.128;4.476;2023-04-01T04:44:49;4.23;;;3.83;;
16393;SDS011;8306;51.128;4.476;2023-04-01T04:47:16;5.07;;;3.80;;
16393;SDS011;8306;51.128;4.476;2023-04-01T04:49:42;4.67;;;4.17;;
16393;SDS011;8306;51.128;4.476;2023-04-01T04:52:09;4.90;;;4.40;;
16393;SDS011;8306;51.128;4.476;2023-04-01T04:54:35;4.13;;;3.83;;
16393;SDS011;8306;51.128;4.476;2023-04-01T04:57:01;4.60;;;4.23;;
16393;SDS011;8306;51.128;4.476;2023-04-01T04:59:28;4.23;;;3.83;;
16393;SDS011;8306;51.128;4.476;2023-04-01T05:01:54;4.93;;;4.53;;
16393;SDS011;8306;51.128;4.476;2023-04-01T05:04:21;4.87;;;4.47;;
16393;SDS011;8306;51.128;4.476;2023-04-01T05:06:47;4.10;;;3.80;;
16393;SDS011;8306;51.128;4.476;2023-04-01T05:09:14;3.60;;;3.30;;
16393;SDS011;8306;51.128;4.476;2023-04-01T05:11:40;4.50;;;4.20;;
16393;SDS011;8306;51.128;4.476;2023-04-01T05:14:11;4.67;;;4.23;;
16393;SDS011;8306;51.128;4.476;2023-04-01T05:16:33;4.40;;;4.07;;
16393;SDS011;8306;51.128;4.476;2023-04-01T05:19:00;4.50;;;4.20;;
16393;SDS011;8306;51.128;4.476;2023-04-01T05:21:26;3.93;;;3.70;;
16393;SDS011;8306;51.128;4.476;2023-04-01T05:23:53;3.60;;;3.30;;
16393;SDS011;8306;51.128;4.476;2023-04-01T05:26:19;3.60;;;2.73;;
16393;SDS011;8306;51.128;4.476;2023-04-01T05:28:46;3.03;;;2.73;;
16393;SDS011;8306;51.128;4.476;2023-04-01T05:31:12;3.73;;;3.40;;
16393;SDS011;8306;51.128;4.476;2023-04-01T05:33:39;2.90;;;2.70;;
16393;SDS011;8306;51.128;4.476;2023-04-01T05:36:06;3.53;;;3.20;;
16393;SDS011;8306;51.128;4.476;2023-04-01T05:38:32;3.37;;;3.00;;
16393;SDS011;8306;51.128;4.476;2023-04-01T05:41:00;2.93;;;2.70;;
16393;SDS011;8306;51.128;4.476;2023-04-01T05:43:25;3.57;;;3.00;;
16393;SDS011;8306;51.128;4.476;2023-04-01T05:45:51;3.53;;;3.23;;
16393;SDS011;8306;51.128;4.476;2023-04-01T05:48:18;3.40;;;3.20;;
16393;SDS011;8306;51.128;4.476;2023-04-01T05:50:44;3.20;;;2.90;;
16393;SDS011;8306;51.128;4.476;2023-04-01T05:53:11;3.10;;;2.80;;
16393;SDS011;8306;51.128;4.476;2023-04-01T05:55:37;2.70;;;2.50;;
16393;SDS011;8306;51.128;4.476;2023-04-01T05:58:03;2.30;;;2.13;;
16393;SDS011;8306;51.128;4.476;2023-04-01T06:00:30;1.60;;;1.50;;
16393;SDS011;8306;51.128;4.476;2023-04-01T06:02:58;1.97;;;1.70;;
16393;SDS011;8306;51.128;4.476;2023-04-01T06:05:29;2.33;;;1.73;;
16393;SDS011;8306;51.128;4.476;2023-04-01T06:07:58;1.97;;;1.87;;
16393;SDS011;8306;51.128;4.476;2023-04-01T06:10:21;1.83;;;1.70;;
16393;SDS011;8306;51.128;4.476;2023-04-01T06:12:50;1.80;;;1.70;;
16393;SDS011;8306;51.128;4.476;2023-04-01T06:15:27;1.63;;;1.47;;
16393;SDS011;8306;51.128;4.476;2023-04-01T06:28:23;1.57;;;1.43;;
16393;SDS011;8306;51.128;4.476;2023-04-01T06:30:54;1.87;;;1.40;;
16393;SDS011;8306;51.128;4.476;2023-04-01T06:41:52;1.60;;;1.20;;
16393;SDS011;8306;51.128;4.476;2023-04-01T06:44:16;1.73;;;1.27;;
16393;SDS011;8306;51.128;4.476;2023-04-01T06:46:44;1.47;;;1.10;;
16393;SDS011;8306;51.128;4.476;2023-04-01T06:52:01;1.23;;;0.97;;
16393;SDS011;8306;51.128;4.476;2023-04-01T06:54:33;0.90;;;0.87;;
16393;SDS011;8306;51.128;4.476;2023-04-01T06:57:00;1.10;;;1.10;;
16393;SDS011;8306;51.128;4.476;2023-04-01T06:59:25;1.00;;;1.00;;
16393;SDS011;8306;51.128;4.476;2023-04-01T07:01:52;1.63;;;1.10;;
16393;SDS011;8306;51.128;4.476;2023-04-01T07:04:23;1.03;;;1.03;;
16393;SDS011;8306;51.128;4.476;2023-04-01T07:06:57;1.00;;;0.90;;
16393;SDS011;8306;51.128;4.476;2023-04-01T07:09:24;1.10;;;1.00;;
16393;SDS011;8306;51.128;4.476;2023-04-01T07:11:49;0.90;;;0.90;;
16393;SDS011;8306;51.128;4.476;2023-04-01T07:17:09;1.67;;;1.23;;
16393;SDS011;8306;51.128;4.476;2023-04-01T07:19:47;1.27;;;1.00;;
16393;SDS011;8306;51.128;4.476;2023-04-01T07:22:23;0.80;;;0.80;;
16393;SDS011;8306;51.128;4.476;2023-04-01T07:24:48;1.13;;;1.00;;
16393;SDS011;8306;51.128;4.476;2023-04-01T07:27:15;0.80;;;0.80;;
16393;SDS011;8306;51.128;4.476;2023-04-01T07:29:41;0.80;;;0.80;;
16393;SDS011;8306;51.128;4.476;2023-04-01T07:32:16;1.17;;;0.80;;
16393;SDS011;8306;51.128;4.476;2023-04-01T07:45:46;2.00;;;1.50;;
16393;SDS011;8306;51.128;4.476;2023-04-01T07:48:17;2.67;;;1.67;;
16393;SDS011;8306;51.128;4.476;2023-04-01T07:53:08;1.73;;;1.10;;
16393;SDS011;8306;51.128;4.476;2023-04-01T08:01:11;1.30;;;1.10;;
16393;SDS011;8306;51.128;4.476;2023-04-01T08:03:38;1.43;;;1.10;;
16393;SDS011;8306;51.128;4.476;2023-04-01T08:06:14;1.67;;;1.27;;
16393;SDS011;8306;51.128;4.476;2023-04-01T08:08:46;1.10;;;1.10;;
16393;SDS011;8306;51.128;4.476;2023-04-01T08:16:55;0.70;;;0.70;;
16393;SDS011;8306;51.128;4.476;2023-04-01T08:19:31;1.43;;;0.80;;
16393;SDS011;8306;51.128;4.476;2023-04-01T08:22:18;1.10;;;0.90;;
16393;SDS011;8306;51.128;4.476;2023-04-01T08:24:41;1.33;;;0.87;;
16393;SDS011;8306;51.128;4.476;2023-04-01T08:27:12;1.23;;;0.90;;
16393;SDS011;8306;51.128;4.476;2023-04-01T08:29:38;1.40;;;0.90;;
16393;SDS011;8306;51.128;4.476;2023-04-01T08:32:06;0.80;;;0.80;;
16393;SDS011;8306;51.128;4.476;2023-04-01T08:34:38;0.60;;;0.60;;
16393;SDS011;8306;51.128;4.476;2023-04-01T08:37:09;0.50;;;0.50;;
16393;SDS011;8306;51.128;4.476;2023-04-01T08:39:41;1.67;;;0.90;;
16393;SDS011;8306;51.128;4.476;2023-04-01T08:45:01;1.43;;;0.60;;
16393;SDS011;8306;51.128;4.476;2023-04-01T08:55:51;0.60;;;0.60;;
16393;SDS011;8306;51.128;4.476;2023-04-01T09:00:50;1.53;;;0.70;;
16393;SDS011;8306;51.128;4.476;2023-04-01T09:17:26;1.03;;;0.90;;
16393;SDS011;8306;51.128;4.476;2023-04-01T09:19:54;1.07;;;0.87;;
16393;SDS011;8306;51.128;4.476;2023-04-01T09:22:25;1.07;;;0.70;;
16393;SDS011;8306;51.128;4.476;2023-04-01T09:27:44;0.63;;;0.63;;
16393;SDS011;8306;51.128;4.476;2023-04-01T09:38:28;0.90;;;0.80;;
16393;SDS011;8306;51.128;4.476;2023-04-01T09:41:02;0.90;;;0.63;;
16393;SDS011;8306;51.128;4.476;2023-04-01T09:48:53;1.27;;;1.13;;
16393;SDS011;8306;51.128;4.476;2023-04-01T10:11:10;1.37;;;1.10;;
16393;SDS011;8306;51.128;4.476;2023-04-01T10:13:20;3.03;;;1.40;;
16393;SDS011;8306;51.128;4.476;2023-04-01T10:21:03;1.60;;;1.20;;
16393;SDS011;8306;51.128;4.476;2023-04-01T10:26:23;1.43;;;1.20;;
16393;SDS011;8306;51.128;4.476;2023-04-01T10:37:47;2.00;;;1.20;;
16393;SDS011;8306;51.128;4.476;2023-04-01T10:40:49;1.70;;;1.10;;
16393;SDS011;8306;51.128;4.476;2023-04-01T10:54:43;0.83;;;0.83;;
16393;SDS011;8306;51.128;4.476;2023-04-01T11:08:28;2.00;;;1.13;;
16393;SDS011;8306;51.128;4.476;2023-04-01T11:19:33;2.23;;;1.47;;
16393;SDS011;8306;51.128;4.476;2023-04-01T11:33:07;1.90;;;1.43;;
16393;SDS011;8306;51.128;4.476;2023-04-01T11:38:14;2.00;;;1.33;;
16393;SDS011;8306;51.128;4.476;2023-04-01T11:43:10;2.43;;;1.20;;
16393;SDS011;8306;51.128;4.476;2023-04-01T11:51:38;1.50;;;1.40;;
16393;SDS011;8306;51.128;4.476;2023-04-01T11:54:10;2.30;;;1.40;;
16393;SDS011;8306;51.128;4.476;2023-04-01T11:59:51;2.53;;;1.40;;
16393;SDS011;8306;51.128;4.476;2023-04-01T12:02:34;2.73;;;1.70;;
16393;SDS011;8306;51.128;4.476;2023-04-01T12:07:53;2.40;;;1.90;;
16393;SDS011;8306;51.128;4.476;2023-04-01T12:10:21;2.93;;;1.40;;
16393;SDS011;8306;51.128;4.476;2023-04-01T12:13:03;1.93;;;1.33;;
16393;SDS011;8306;51.128;4.476;2023-04-01T12:15:43;1.20;;;1.10;;
16393;SDS011;8306;51.128;4.476;2023-04-01T12:20:51;1.83;;;1.33;;
16393;SDS011;8306;51.128;4.476;2023-04-01T12:31:42;1.67;;;1.57;;
16393;SDS011;8306;51.128;4.476;2023-04-01T12:39:51;1.20;;;1.00;;
16393;SDS011;8306;51.128;4.476;2023-04-01T12:42:39;2.00;;;1.00;;
16393;SDS011;8306;51.128;4.476;2023-04-01T12:45:02;1.10;;;0.97;;
16393;SDS011;8306;51.128;4.476;2023-04-01T12:52:32;0.87;;;0.70;;
16393;SDS011;8306;51.128;4.476;2023-04-01T12:57:34;1.63;;;0.70;;
16393;SDS011;8306;51.128;4.476;2023-04-01T13:05:25;0.93;;;0.60;;
16393;SDS011;8306;51.128;4.476;2023-04-01T13:08:14;0.80;;;0.70;;
16393;SDS011;8306;51.128;4.476;2023-04-01T13:16:06;0.70;;;0.70;;
16393;SDS011;8306;51.128;4.476;2023-04-01T13:18:39;1.23;;;1.00;;
16393;SDS011;8306;51.128;4.476;2023-04-01T13:24:02;1.07;;;1.07;;
16393;SDS011;8306;51.128;4.476;2023-04-01T13:27:04;1.70;;;1.60;;
16393;SDS011;8306;51.128;4.476;2023-04-01T13:29:37;1.90;;;1.80;;
16393;SDS011;8306;51.128;4.476;2023-04-01T13:32:36;2.10;;;2.00;;
16393;SDS011;8306;51.128;4.476;2023-04-01T13:35:20;1.83;;;1.73;;
16393;SDS011;8306;51.128;4.476;2023-04-01T13:37:44;2.87;;;1.53;;
16393;SDS011;8306;51.128;4.476;2023-04-01T13:40:26;1.67;;;1.50;;
16393;SDS011;8306;51.128;4.476;2023-04-01T13:42:57;2.67;;;1.40;;
16393;SDS011;8306;51.128;4.476;2023-04-01T13:45:29;2.10;;;1.80;;
16393;SDS011;8306;51.128;4.476;2023-04-01T13:53:56;2.53;;;1.67;;
16393;SDS011;8306;51.128;4.476;2023-04-01T14:10:10;2.23;;;1.60;;
16393;SDS011;8306;51.128;4.476;2023-04-01T14:12:57;1.63;;;1.20;;
16393;SDS011;8306;51.128;4.476;2023-04-01T14:20:22;2.10;;;1.40;;
16393;SDS011;8306;51.128;4.476;2023-04-01T14:25:51;1.90;;;1.20;;
16393;SDS011;8306;51.128;4.476;2023-04-01T14:28:49;1.00;;;0.77;;
16393;SDS011;8306;51.128;4.476;2023-04-01T14:42:21;1.67;;;0.60;;
16393;SDS011;8306;51.128;4.476;2023-04-01T14:45:08;0.93;;;0.60;;
16393;SDS011;8306;51.128;4.476;2023-04-01T14:48:00;1.17;;;0.50;;
16393;SDS011;8306;51.128;4.476;2023-04-01T14:50:30;0.93;;;0.63;;
16393;SDS011;8306;51.128;4.476;2023-04-01T14:52:57;1.03;;;0.70;;
16393;SDS011;8306;51.128;4.476;2023-04-01T14:58:10;0.70;;;0.50;;
16393;SDS011;8306;51.128;4.476;2023-04-01T15:00:54;1.10;;;0.70;;
16393;SDS011;8306;51.128;4.476;2023-04-01T15:05:55;1.67;;;0.90;;
16393;SDS011;8306;51.128;4.476;2023-04-01T15:08:34;1.23;;;0.90;;
16393;SDS011;8306;51.128;4.476;2023-04-01T15:16:27;1.20;;;1.00;;
16393;SDS011;8306;51.128;4.476;2023-04-01T15:19:15;1.93;;;0.70;;
16393;SDS011;8306;51.128;4.476;2023-04-01T15:22:01;1.73;;;0.80;;
16393;SDS011;8306;51.128;4.476;2023-04-01T15:33:05;1.53;;;1.20;;
16393;SDS011;8306;51.128;4.476;2023-04-01T15:35:39;1.37;;;1.20;;
16393;SDS011;8306;51.128;4.476;2023-04-01T15:38:35;1.20;;;1.10;;
16393;SDS011;8306;51.128;4.476;2023-04-01T15:43:41;0.97;;;0.87;;
16393;SDS011;8306;51.128;4.476;2023-04-01T15:49:12;1.00;;;0.90;;
16393;SDS011;8306;51.128;4.476;2023-04-01T15:51:41;1.33;;;0.80;;
16393;SDS011;8306;51.128;4.476;2023-04-01T15:56:53;1.03;;;0.80;;
16393;SDS011;8306;51.128;4.476;2023-04-01T16:02:18;1.27;;;1.07;;
16393;SDS011;8306;51.128;4.476;2023-04-01T16:04:54;2.00;;;1.40;;
16393;SDS011;8306;51.128;4.476;2023-04-01T16:16:18;1.53;;;1.40;;
16393;SDS011;8306;51.128;4.476;2023-04-01T16:21:48;0.87;;;0.80;;
16393;SDS011;8306;51.128;4.476;2023-04-01T16:24:32;1.00;;;0.70;;
16393;SDS011;8306;51.128;4.476;2023-04-01T16:26:59;1.23;;;0.90;;
16393;SDS011;8306;51.128;4.476;2023-04-01T16:29:44;1.80;;;1.50;;
16393;SDS011;8306;51.128;4.476;2023-04-01T16:32:36;1.40;;;1.13;;
16393;SDS011;8306;51.128;4.476;2023-04-01T16:40:24;7.17;;;6.47;;
16393;SDS011;8306;51.128;4.476;2023-04-01T16:45:42;5.30;;;4.90;;
16393;SDS011;8306;51.128;4.476;2023-04-01T16:50:55;2.43;;;2.33;;
16393;SDS011;8306;51.128;4.476;2023-04-01T16:53:42;3.17;;;2.97;;
16393;SDS011;8306;51.128;4.476;2023-04-01T16:56:07;5.63;;;5.17;;
16393;SDS011;8306;51.128;4.476;2023-04-01T17:01:07;6.20;;;5.80;;
16393;SDS011;8306;51.128;4.476;2023-04-01T17:03:33;5.00;;;4.60;;
16393;SDS011;8306;51.128;4.476;2023-04-01T17:11:31;4.20;;;3.90;;
16393;SDS011;8306;51.128;4.476;2023-04-01T17:22:12;4.67;;;4.37;;
16393;SDS011;8306;51.128;4.476;2023-04-01T17:24:33;5.87;;;5.47;;
16393;SDS011;8306;51.128;4.476;2023-04-01T17:37:41;5.13;;;4.73;;
16393;SDS011;8306;51.128;4.476;2023-04-01T17:42:57;11.27;;;10.47;;
16393;SDS011;8306;51.128;4.476;2023-04-01T17:45:22;5.53;;;5.13;;
16393;SDS011;8306;51.128;4.476;2023-04-01T17:47:49;3.60;;;3.27;;
16393;SDS011;8306;51.128;4.476;2023-04-01T17:50:25;4.57;;;3.90;;
16393;SDS011;8306;51.128;4.476;2023-04-01T17:53:07;4.27;;;2.83;;
16393;SDS011;8306;51.128;4.476;2023-04-01T17:55:46;4.33;;;3.53;;
16393;SDS011;8306;51.128;4.476;2023-04-01T17:58:33;5.07;;;4.63;;
16393;SDS011;8306;51.128;4.476;2023-04-01T18:06:20;4.57;;;4.10;;
16393;SDS011;8306;51.128;4.476;2023-04-01T18:08:56;10.40;;;9.47;;
16393;SDS011;8306;51.128;4.476;2023-04-01T18:14:13;6.77;;;6.03;;
16393;SDS011;8306;51.128;4.476;2023-04-01T18:19:12;13.13;;;9.17;;
16393;SDS011;8306;51.128;4.476;2023-04-01T18:21:49;7.47;;;6.10;;
16393;SDS011;8306;51.128;4.476;2023-04-01T18:24:30;9.30;;;8.43;;
16393;SDS011;8306;51.128;4.476;2023-04-01T18:27:02;11.30;;;10.20;;
16393;SDS011;8306;51.128;4.476;2023-04-01T18:37:48;10.80;;;8.03;;
16393;SDS011;8306;51.128;4.476;2023-04-01T18:40:32;10.23;;;9.13;;
16393;SDS011;8306;51.128;4.476;2023-04-01T18:45:54;21.13;;;15.77;;
16393;SDS011;8306;51.128;4.476;2023-04-01T18:51:10;14.50;;;9.50;;
16393;SDS011;8306;51.128;4.476;2023-04-01T18:56:15;10.07;;;7.80;;
16393;SDS011;8306;51.128;4.476;2023-04-01T18:58:46;13.70;;;8.70;;
16393;SDS011;8306;51.128;4.476;2023-04-01T19:06:36;15.50;;;10.03;;
16393;SDS011;8306;51.128;4.476;2023-04-01T19:17:25;10.97;;;9.40;;
16393;SDS011;8306;51.128;4.476;2023-04-01T19:25:39;10.83;;;8.93;;
16393;SDS011;8306;51.128;4.476;2023-04-01T19:31:08;10.33;;;9.43;;
16393;SDS011;8306;51.128;4.476;2023-04-01T19:33:34;11.93;;;10.70;;
16393;SDS011;8306;51.128;4.476;2023-04-01T19:38:55;11.67;;;10.67;;
16393;SDS011;8306;51.128;4.476;2023-04-01T19:44:19;15.03;;;12.90;;
16393;SDS011;8306;51.128;4.476;2023-04-01T19:46:59;15.77;;;13.60;;
16393;SDS011;8306;51.128;4.476;2023-04-01T19:49:27;23.00;;;16.50;;
16393;SDS011;8306;51.128;4.476;2023-04-01T19:51:56;22.03;;;15.63;;
16393;SDS011;8306;51.128;4.476;2023-04-01T19:57:38;23.23;;;17.83;;
16393;SDS011;8306;51.128;4.476;2023-04-01T20:05:38;21.77;;;16.50;;
16393;SDS011;8306;51.128;4.476;2023-04-01T20:08:04;22.77;;;15.83;;
16393;SDS011;8306;51.128;4.476;2023-04-01T20:16:03;16.33;;;15.07;;
16393;SDS011;8306;51.128;4.476;2023-04-01T20:21:17;16.20;;;14.70;;
16393;SDS011;8306;51.128;4.476;2023-04-01T20:23:47;19.53;;;16.83;;
16393;SDS011;8306;51.128;4.476;2023-04-01T20:26:30;13.67;;;12.57;;
16393;SDS011;8306;51.128;4.476;2023-04-01T20:31:44;14.13;;;12.93;;
16393;SDS011;8306;51.128;4.476;2023-04-01T20:37:34;15.37;;;13.77;;
16393;SDS011;8306;51.128;4.476;2023-04-01T20:50:49;8.17;;;7.57;;
16393;SDS011;8306;51.128;4.476;2023-04-01T20:55:58;8.10;;;7.60;;
16393;SDS011;8306;51.128;4.476;2023-04-01T20:58:41;9.23;;;8.63;;
16393;SDS011;8306;51.128;4.476;2023-04-01T21:09:29;7.00;;;6.60;;
16393;SDS011;8306;51.128;4.476;2023-04-01T21:17:10;6.40;;;6.10;;
16393;SDS011;8306;51.128;4.476;2023-04-01T21:35:01;8.17;;;7.67;;
16393;SDS011;8306;51.128;4.476;2023-04-01T21:40:24;10.60;;;9.80;;
16393;SDS011;8306;51.128;4.476;2023-04-01T21:44:51;8.40;;;8.00;;
16393;SDS011;8306;51.128;4.476;2023-04-01T22:03:34;11.97;;;11.20;;
16393;SDS011;8306;51.128;4.476;2023-04-01T22:11:19;13.53;;;12.63;;
16393;SDS011;8306;51.128;4.476;2023-04-01T22:13:54;10.30;;;9.70;;
16393;SDS011;8306;51.128;4.476;2023-04-01T22:19:17;12.23;;;11.37;;
16393;SDS011;8306;51.128;4.476;2023-04-01T22:24:17;12.07;;;11.37;;
16393;SDS011;8306;51.128;4.476;2023-04-01T22:26:45;12.70;;;11.90;;
16393;SDS011;8306;51.128;4.476;2023-04-01T22:29:16;12.47;;;11.67;;
16393;SDS011;8306;51.128;4.476;2023-04-01T22:32:07;11.03;;;10.33;;
16393;SDS011;8306;51.128;4.476;2023-04-01T22:34:42;12.63;;;11.83;;
16393;SDS011;8306;51.128;4.476;2023-04-01T22:37:30;13.20;;;12.10;;
16393;SDS011;8306;51.128;4.476;2023-04-01T22:42:52;13.77;;;12.83;;
16393;SDS011;8306;51.128;4.476;2023-04-01T22:45:18;13.60;;;12.70;;
16393;SDS011;8306;51.128;4.476;2023-04-01T22:53:17;13.73;;;12.73;;
16393;SDS011;8306;51.128;4.476;2023-04-01T22:55:46;14.30;;;13.40;;
16393;SDS011;8306;51.128;4.476;2023-04-01T22:58:20;14.17;;;13.17;;
16393;SDS011;8306;51.128;4.476;2023-04-01T23:00:47;15.20;;;14.20;;
16393;SDS011;8306;51.128;4.476;2023-04-01T23:03:22;16.03;;;14.93;;
16393;SDS011;8306;51.128;4.476;2023-04-01T23:05:52;14.40;;;13.33;;
16393;SDS011;8306;51.128;4.476;2023-04-01T23:11:22;15.03;;;13.87;;
16393;SDS011;8306;51.128;4.476;2023-04-01T23:17:02;16.53;;;15.37;;
16393;SDS011;8306;51.128;4.476;2023-04-01T23:19:29;17.07;;;15.97;;
16393;SDS011;8306;51.128;4.476;2023-04-01T23:22:09;19.60;;;18.10;;
16393;SDS011;8306;51.128;4.476;2023-04-01T23:24:41;18.07;;;16.87;;
16393;SDS011;8306;51.128;4.476;2023-04-01T23:29:45;17.70;;;16.50;;
16393;SDS011;8306;51.128;4.476;2023-04-01T23:32:15;17.20;;;16.00;;
16393;SDS011;8306;51.128;4.476;2023-04-01T23:34:51;15.23;;;14.17;;
16393;SDS011;8306;51.128;4.476;2023-04-01T23:37:16;15.17;;;14.17;;
16393;SDS011;8306;51.128;4.476;2023-04-01T23:39:43;13.53;;;12.63;;
16393;SDS011;8306;51.128;4.476;2023-04-01T23:42:18;14.17;;;12.77;;
16393;SDS011;8306;51.128;4.476;2023-04-01T23:44:41;13.27;;;12.47;;
16393;SDS011;8306;51.128;4.476;2023-04-01T23:47:08;11.80;;;10.97;;
16393;SDS011;8306;51.128;4.476;2023-04-01T23:49:36;11.33;;;10.63;;
16393;SDS011;8306;51.128;4.476;2023-04-01T23:52:19;11.90;;;11.20;;
16393;SDS011;8306;51.128;4.476;2023-04-01T23:54:43;11.23;;;10.53;;
16393;SDS011;8306;51.128;4.476;2023-04-01T23:57:15;11.83;;;11.03;;
16393;SDS011;8306;51.128;4.476;2023-04-01T23:59:41;12.63;;;11.77;;
